sensor_id;sensor_type;location;lat;lon;timestamp;P1;durP1;ratioP1;P2;durP2;ratioP2
23617;SDS011;18207;32.078;34.818;2023-04-16T00:02:11;2.90;;;2.70;;
23617;SDS011;18207;32.078;34.818;2023-04-16T00:04:46;2.90;;;2.42;;
23617;SDS011;18207;32.078;34.818;2023-04-16T00:07:16;2.65;;;2.45;;
23617;SDS011;18207;32.078;34.818;2023-04-16T00:09:46;2.72;;;2.53;;
23617;SDS011;18207;32.078;34.818;2023-04-16T00:12:16;3.00;;;2.80;;
23617;SDS011;18207;32.078;34.818;2023-04-16T00:14:46;3.10;;;2.80;;
23617;SDS011;18207;32.078;34.818;2023-04-16T00:17:16;2.92;;;2.63;;
23617;SDS011;18207;32.078;34.818;2023-04-16T00:19:48;2.88;;;2.67;;
23617;SDS011;18207;32.078;34.818;2023-04-16T00:22:19;2.67;;;2.47;;
23617;SDS011;18207;32.078;34.818;2023-04-16T00:24:49;2.65;;;2.45;;
23617;SDS011;18207;32.078;34.818;2023-04-16T00:27:20;2.83;;;2.63;;
23617;SDS011;18207;32.078;34.818;2023-04-16T00:29:50;2.75;;;2.55;;
23617;SDS011;18207;32.078;34.818;2023-04-16T00:32:20;2.40;;;2.20;;
23617;SDS011;18207;32.078;34.818;2023-04-16T00:34:52;2.70;;;2.50;;
23617;SDS011;18207;32.078;34.818;2023-04-16T00:37:22;3.00;;;2.70;;
23617;SDS011;18207;32.078;34.818;2023-04-16T00:39:52;4.30;;;2.45;;
23617;SDS011;18207;32.078;34.818;2023-04-16T00:42:22;2.85;;;2.65;;
23617;SDS011;18207;32.078;34.818;2023-04-16T00:44:53;2.88;;;2.58;;
23617;SDS011;18207;32.078;34.818;2023-04-16T00:47:23;2.50;;;2.40;;
23617;SDS011;18207;32.078;34.818;2023-04-16T00:49:55;2.80;;;2.60;;
23617;SDS011;18207;32.078;34.818;2023-04-16T00:52:25;2.65;;;2.45;;
23617;SDS011;18207;32.078;34.818;2023-04-16T00:54:57;2.80;;;2.60;;
23617;SDS011;18207;32.078;34.818;2023-04-16T00:57:27;2.80;;;2.60;;
23617;SDS011;18207;32.078;34.818;2023-04-16T00:59:58;2.83;;;2.60;;
23617;SDS011;18207;32.078;34.818;2023-04-16T01:02:28;2.97;;;2.33;;
23617;SDS011;18207;32.078;34.818;2023-04-16T01:05:00;2.70;;;2.50;;
23617;SDS011;18207;32.078;34.818;2023-04-16T01:07:32;2.63;;;2.42;;
23617;SDS011;18207;32.078;34.818;2023-04-16T01:10:02;3.08;;;2.78;;
23617;SDS011;18207;32.078;34.818;2023-04-16T01:12:33;2.85;;;2.65;;
23617;SDS011;18207;32.078;34.818;2023-04-16T01:15:03;2.63;;;2.42;;
23617;SDS011;18207;32.078;34.818;2023-04-16T01:17:35;2.67;;;2.53;;
23617;SDS011;18207;32.078;34.818;2023-04-16T01:20:07;2.92;;;2.72;;
23617;SDS011;18207;32.078;34.818;2023-04-16T01:22:40;2.83;;;2.63;;
23617;SDS011;18207;32.078;34.818;2023-04-16T01:25:12;3.10;;;2.90;;
23617;SDS011;18207;32.078;34.818;2023-04-16T01:27:43;2.85;;;2.65;;
23617;SDS011;18207;32.078;34.818;2023-04-16T01:30:13;2.75;;;2.45;;
23617;SDS011;18207;32.078;34.818;2023-04-16T01:32:43;2.97;;;2.78;;
23617;SDS011;18207;32.078;34.818;2023-04-16T01:35:13;2.90;;;2.70;;
23617;SDS011;18207;32.078;34.818;2023-04-16T01:37:46;2.97;;;2.78;;
23617;SDS011;18207;32.078;34.818;2023-04-16T01:40:18;2.75;;;2.55;;
23617;SDS011;18207;32.078;34.818;2023-04-16T01:42:48;2.90;;;2.70;;
23617;SDS011;18207;32.078;34.818;2023-04-16T01:45:18;2.95;;;2.75;;
23617;SDS011;18207;32.078;34.818;2023-04-16T01:47:48;3.15;;;2.90;;
23617;SDS011;18207;32.078;34.818;2023-04-16T01:50:19;3.38;;;2.88;;
23617;SDS011;18207;32.078;34.818;2023-04-16T01:52:51;3.08;;;2.88;;
23617;SDS011;18207;32.078;34.818;2023-04-16T01:55:22;2.92;;;2.72;;
23617;SDS011;18207;32.078;34.818;2023-04-16T01:57:53;3.50;;;3.20;;
23617;SDS011;18207;32.078;34.818;2023-04-16T02:00:22;3.10;;;2.80;;
23617;SDS011;18207;32.078;34.818;2023-04-16T02:02:52;3.08;;;2.88;;
23617;SDS011;18207;32.078;34.818;2023-04-16T02:05:22;3.08;;;2.80;;
23617;SDS011;18207;32.078;34.818;2023-04-16T02:07:54;2.88;;;2.67;;
23617;SDS011;18207;32.078;34.818;2023-04-16T02:10:25;3.15;;;2.70;;
23617;SDS011;18207;32.078;34.818;2023-04-16T02:12:54;2.97;;;2.67;;
23617;SDS011;18207;32.078;34.818;2023-04-16T02:15:24;2.70;;;2.50;;
23617;SDS011;18207;32.078;34.818;2023-04-16T02:17:54;2.83;;;2.63;;
23617;SDS011;18207;32.078;34.818;2023-04-16T02:20:24;3.00;;;2.80;;
23617;SDS011;18207;32.078;34.818;2023-04-16T02:22:56;3.30;;;3.00;;
23617;SDS011;18207;32.078;34.818;2023-04-16T02:25:26;2.78;;;2.58;;
23617;SDS011;18207;32.078;34.818;2023-04-16T02:27:56;3.25;;;2.97;;
23617;SDS011;18207;32.078;34.818;2023-04-16T02:30:26;4.22;;;3.10;;
23617;SDS011;18207;32.078;34.818;2023-04-16T02:32:56;2.92;;;2.72;;
23617;SDS011;18207;32.078;34.818;2023-04-16T02:35:27;3.05;;;2.85;;
23617;SDS011;18207;32.078;34.818;2023-04-16T02:37:59;3.00;;;2.80;;
23617;SDS011;18207;32.078;34.818;2023-04-16T02:40:30;3.00;;;2.80;;
23617;SDS011;18207;32.078;34.818;2023-04-16T02:43:00;3.20;;;2.97;;
23617;SDS011;18207;32.078;34.818;2023-04-16T02:45:31;3.33;;;3.03;;
23617;SDS011;18207;32.078;34.818;2023-04-16T02:48:01;3.50;;;2.75;;
23617;SDS011;18207;32.078;34.818;2023-04-16T02:50:33;3.03;;;2.72;;
23617;SDS011;18207;32.078;34.818;2023-04-16T02:53:05;2.97;;;2.78;;
23617;SDS011;18207;32.078;34.818;2023-04-16T02:55:36;3.13;;;2.92;;
23617;SDS011;18207;32.078;34.818;2023-04-16T02:58:06;3.33;;;3.08;;
23617;SDS011;18207;32.078;34.818;2023-04-16T03:00:36;3.08;;;2.78;;
23617;SDS011;18207;32.078;34.818;2023-04-16T03:03:06;2.90;;;2.70;;
23617;SDS011;18207;32.078;34.818;2023-04-16T03:05:36;3.30;;;2.95;;
23617;SDS011;18207;32.078;34.818;2023-04-16T03:08:08;3.10;;;2.90;;
23617;SDS011;18207;32.078;34.818;2023-04-16T03:10:38;2.88;;;2.67;;
23617;SDS011;18207;32.078;34.818;2023-04-16T03:13:09;3.78;;;3.47;;
23617;SDS011;18207;32.078;34.818;2023-04-16T03:15:39;2.72;;;2.53;;
23617;SDS011;18207;32.078;34.818;2023-04-16T03:18:09;3.05;;;2.85;;
23617;SDS011;18207;32.078;34.818;2023-04-16T03:20:39;3.30;;;3.05;;
23617;SDS011;18207;32.078;34.818;2023-04-16T03:23:10;3.08;;;2.88;;
23617;SDS011;18207;32.078;34.818;2023-04-16T03:25:40;3.17;;;2.88;;
23617;SDS011;18207;32.078;34.818;2023-04-16T03:28:12;3.50;;;3.03;;
23617;SDS011;18207;32.078;34.818;2023-04-16T03:30:44;2.78;;;2.58;;
23617;SDS011;18207;32.078;34.818;2023-04-16T03:33:19;3.08;;;2.88;;
23617;SDS011;18207;32.078;34.818;2023-04-16T03:35:55;3.30;;;3.00;;
23617;SDS011;18207;32.078;34.818;2023-04-16T03:38:28;3.22;;;3.03;;
23617;SDS011;18207;32.078;34.818;2023-04-16T03:40:58;3.00;;;2.80;;
23617;SDS011;18207;32.078;34.818;2023-04-16T03:43:28;3.45;;;3.15;;
23617;SDS011;18207;32.078;34.818;2023-04-16T03:45:58;3.80;;;3.50;;
23617;SDS011;18207;32.078;34.818;2023-04-16T03:48:28;4.18;;;3.78;;
23617;SDS011;18207;32.078;34.818;2023-04-16T03:50:58;4.05;;;3.75;;
23617;SDS011;18207;32.078;34.818;2023-04-16T03:53:30;4.30;;;3.95;;
23617;SDS011;18207;32.078;34.818;2023-04-16T03:55:59;4.10;;;3.80;;
23617;SDS011;18207;32.078;34.818;2023-04-16T03:58:29;4.57;;;4.18;;
23617;SDS011;18207;32.078;34.818;2023-04-16T04:00:59;4.53;;;4.13;;
23617;SDS011;18207;32.078;34.818;2023-04-16T04:03:28;4.95;;;4.55;;
23617;SDS011;18207;32.078;34.818;2023-04-16T04:05:58;4.75;;;4.35;;
23617;SDS011;18207;32.078;34.818;2023-04-16T04:08:30;4.72;;;4.28;;
23617;SDS011;18207;32.078;34.818;2023-04-16T04:11:00;5.00;;;4.57;;
23617;SDS011;18207;32.078;34.818;2023-04-16T04:13:30;5.35;;;4.85;;
23617;SDS011;18207;32.078;34.818;2023-04-16T04:16:00;4.80;;;4.40;;
23617;SDS011;18207;32.078;34.818;2023-04-16T04:18:31;4.47;;;4.15;;
23617;SDS011;18207;32.078;34.818;2023-04-16T04:21:03;4.72;;;4.28;;
23617;SDS011;18207;32.078;34.818;2023-04-16T04:23:36;4.82;;;4.43;;
23617;SDS011;18207;32.078;34.818;2023-04-16T04:26:07;4.63;;;4.22;;
23617;SDS011;18207;32.078;34.818;2023-04-16T04:28:37;4.43;;;4.03;;
23617;SDS011;18207;32.078;34.818;2023-04-16T04:31:07;4.78;;;4.38;;
23617;SDS011;18207;32.078;34.818;2023-04-16T04:33:37;4.28;;;3.97;;
23617;SDS011;18207;32.078;34.818;2023-04-16T04:36:07;4.15;;;3.80;;
23617;SDS011;18207;32.078;34.818;2023-04-16T04:38:38;4.43;;;4.13;;
23617;SDS011;18207;32.078;34.818;2023-04-16T04:41:08;4.35;;;4.05;;
23617;SDS011;18207;32.078;34.818;2023-04-16T04:43:38;4.72;;;4.35;;
23617;SDS011;18207;32.078;34.818;2023-04-16T04:46:08;5.05;;;4.65;;
23617;SDS011;18207;32.078;34.818;2023-04-16T04:48:38;4.88;;;4.47;;
23617;SDS011;18207;32.078;34.818;2023-04-16T04:51:08;4.90;;;4.50;;
23617;SDS011;18207;32.078;34.818;2023-04-16T04:53:40;4.60;;;4.30;;
23617;SDS011;18207;32.078;34.818;2023-04-16T04:56:10;4.88;;;4.47;;
23617;SDS011;18207;32.078;34.818;2023-04-16T04:58:40;4.90;;;4.50;;
23617;SDS011;18207;32.078;34.818;2023-04-16T05:01:10;4.72;;;4.32;;
23617;SDS011;18207;32.078;34.818;2023-04-16T05:03:40;4.70;;;4.32;;
23617;SDS011;18207;32.078;34.818;2023-04-16T05:06:10;4.45;;;4.10;;
23617;SDS011;18207;32.078;34.818;2023-04-16T05:08:41;4.75;;;4.35;;
23617;SDS011;18207;32.078;34.818;2023-04-16T05:11:11;4.45;;;4.07;;
23617;SDS011;18207;32.078;34.818;2023-04-16T05:13:41;4.95;;;4.55;;
23617;SDS011;18207;32.078;34.818;2023-04-16T05:16:11;5.10;;;4.70;;
23617;SDS011;18207;32.078;34.818;2023-04-16T05:18:41;4.28;;;3.97;;
23617;SDS011;18207;32.078;34.818;2023-04-16T05:21:11;4.30;;;4.00;;
23617;SDS011;18207;32.078;34.818;2023-04-16T05:23:44;3.92;;;3.63;;
23617;SDS011;18207;32.078;34.818;2023-04-16T05:26:14;4.35;;;4.05;;
23617;SDS011;18207;32.078;34.818;2023-04-16T05:28:44;4.20;;;3.83;;
23617;SDS011;18207;32.078;34.818;2023-04-16T05:31:13;4.05;;;3.75;;
23617;SDS011;18207;32.078;34.818;2023-04-16T05:33:44;4.65;;;4.20;;
23617;SDS011;18207;32.078;34.818;2023-04-16T05:36:14;4.13;;;3.83;;
23617;SDS011;18207;32.078;34.818;2023-04-16T05:38:45;3.85;;;3.55;;
23617;SDS011;18207;32.078;34.818;2023-04-16T05:41:15;4.15;;;3.78;;
23617;SDS011;18207;32.078;34.818;2023-04-16T05:43:46;3.95;;;3.55;;
23617;SDS011;18207;32.078;34.818;2023-04-16T05:46:16;4.00;;;3.60;;
23617;SDS011;18207;32.078;34.818;2023-04-16T05:48:46;3.88;;;3.58;;
23617;SDS011;18207;32.078;34.818;2023-04-16T05:51:16;3.40;;;3.15;;
23617;SDS011;18207;32.078;34.818;2023-04-16T05:53:50;4.05;;;3.67;;
23617;SDS011;18207;32.078;34.818;2023-04-16T05:56:20;3.92;;;3.63;;
23617;SDS011;18207;32.078;34.818;2023-04-16T05:58:51;3.63;;;3.33;;
23617;SDS011;18207;32.078;34.818;2023-04-16T06:01:21;3.78;;;3.47;;
23617;SDS011;18207;32.078;34.818;2023-04-16T06:03:51;3.92;;;3.65;;
23617;SDS011;18207;32.078;34.818;2023-04-16T06:06:21;3.90;;;3.60;;
23617;SDS011;18207;32.078;34.818;2023-04-16T06:08:55;3.70;;;3.40;;
23617;SDS011;18207;32.078;34.818;2023-04-16T06:11:25;3.95;;;3.53;;
23617;SDS011;18207;32.078;34.818;2023-04-16T06:13:54;3.63;;;3.33;;
23617;SDS011;18207;32.078;34.818;2023-04-16T06:16:25;3.90;;;3.70;;
23617;SDS011;18207;32.078;34.818;2023-04-16T06:18:54;3.60;;;3.38;;
23617;SDS011;18207;32.078;34.818;2023-04-16T06:21:25;3.75;;;3.45;;
23617;SDS011;18207;32.078;34.818;2023-04-16T06:23:57;3.55;;;3.25;;
23617;SDS011;18207;32.078;34.818;2023-04-16T06:26:27;3.70;;;3.40;;
23617;SDS011;18207;32.078;34.818;2023-04-16T06:28:57;3.92;;;3.63;;
23617;SDS011;18207;32.078;34.818;2023-04-16T06:31:28;4.00;;;3.35;;
23617;SDS011;18207;32.078;34.818;2023-04-16T06:33:58;3.80;;;3.50;;
23617;SDS011;18207;32.078;34.818;2023-04-16T06:36:28;3.90;;;3.60;;
23617;SDS011;18207;32.078;34.818;2023-04-16T06:38:59;3.55;;;3.25;;
23617;SDS011;18207;32.078;34.818;2023-04-16T06:41:29;3.78;;;3.45;;
23617;SDS011;18207;32.078;34.818;2023-04-16T06:43:59;4.43;;;3.53;;
23617;SDS011;18207;32.078;34.818;2023-04-16T06:46:29;4.10;;;3.70;;
23617;SDS011;18207;32.078;34.818;2023-04-16T06:49:00;3.45;;;3.17;;
23617;SDS011;18207;32.078;34.818;2023-04-16T06:51:30;3.33;;;3.03;;
23617;SDS011;18207;32.078;34.818;2023-04-16T06:54:02;3.20;;;3.00;;
23617;SDS011;18207;32.078;34.818;2023-04-16T06:56:32;3.42;;;2.95;;
23617;SDS011;18207;32.078;34.818;2023-04-16T06:59:03;3.35;;;3.05;;
23617;SDS011;18207;32.078;34.818;2023-04-16T07:01:33;3.33;;;3.10;;
23617;SDS011;18207;32.078;34.818;2023-04-16T07:04:04;3.28;;;3.08;;
23617;SDS011;18207;32.078;34.818;2023-04-16T07:06:34;3.05;;;2.83;;
23617;SDS011;18207;32.078;34.818;2023-04-16T07:09:06;2.75;;;2.55;;
23617;SDS011;18207;32.078;34.818;2023-04-16T07:11:36;3.25;;;2.85;;
23617;SDS011;18207;32.078;34.818;2023-04-16T07:14:07;2.92;;;2.72;;
23617;SDS011;18207;32.078;34.818;2023-04-16T07:16:37;3.00;;;2.80;;
23617;SDS011;18207;32.078;34.818;2023-04-16T07:19:07;3.00;;;2.67;;
23617;SDS011;18207;32.078;34.818;2023-04-16T07:21:37;2.95;;;2.75;;
23617;SDS011;18207;32.078;34.818;2023-04-16T07:24:11;2.92;;;2.72;;
23617;SDS011;18207;32.078;34.818;2023-04-16T07:26:41;3.08;;;2.88;;
23617;SDS011;18207;32.078;34.818;2023-04-16T07:29:11;3.05;;;2.70;;
23617;SDS011;18207;32.078;34.818;2023-04-16T07:31:41;2.95;;;2.75;;
23617;SDS011;18207;32.078;34.818;2023-04-16T07:34:11;3.28;;;3.08;;
23617;SDS011;18207;32.078;34.818;2023-04-16T07:36:41;3.67;;;3.17;;
23617;SDS011;18207;32.078;34.818;2023-04-16T07:39:13;3.15;;;2.95;;
23617;SDS011;18207;32.078;34.818;2023-04-16T07:41:43;3.55;;;3.25;;
23617;SDS011;18207;32.078;34.818;2023-04-16T07:44:13;3.30;;;3.10;;
23617;SDS011;18207;32.078;34.818;2023-04-16T07:46:43;3.22;;;3.03;;
23617;SDS011;18207;32.078;34.818;2023-04-16T07:49:13;3.63;;;3.28;;
23617;SDS011;18207;32.078;34.818;2023-04-16T07:51:44;2.92;;;2.67;;
23617;SDS011;18207;32.078;34.818;2023-04-16T07:54:16;2.80;;;2.60;;
23617;SDS011;18207;32.078;34.818;2023-04-16T07:56:46;3.22;;;2.95;;
23617;SDS011;18207;32.078;34.818;2023-04-16T07:59:16;3.00;;;2.80;;
23617;SDS011;18207;32.078;34.818;2023-04-16T08:01:50;2.92;;;2.72;;
23617;SDS011;18207;32.078;34.818;2023-04-16T08:04:21;3.72;;;3.42;;
23617;SDS011;18207;32.078;34.818;2023-04-16T08:06:52;3.33;;;3.13;;
23617;SDS011;18207;32.078;34.818;2023-04-16T08:09:25;3.10;;;2.90;;
23617;SDS011;18207;32.078;34.818;2023-04-16T08:11:55;3.45;;;3.15;;
23617;SDS011;18207;32.078;34.818;2023-04-16T08:14:25;3.13;;;2.90;;
23617;SDS011;18207;32.078;34.818;2023-04-16T08:16:56;4.30;;;3.42;;
23617;SDS011;18207;32.078;34.818;2023-04-16T08:19:26;2.85;;;2.65;;
23617;SDS011;18207;32.078;34.818;2023-04-16T08:21:56;2.95;;;2.72;;
23617;SDS011;18207;32.078;34.818;2023-04-16T08:24:28;3.05;;;2.85;;
23617;SDS011;18207;32.078;34.818;2023-04-16T08:26:58;3.28;;;3.08;;
23617;SDS011;18207;32.078;34.818;2023-04-16T08:29:44;2.97;;;2.78;;
23617;SDS011;18207;32.078;34.818;2023-04-16T08:32:14;3.22;;;3.03;;
23617;SDS011;18207;32.078;34.818;2023-04-16T08:34:45;3.85;;;3.55;;
23617;SDS011;18207;32.078;34.818;2023-04-16T08:37:17;3.60;;;3.30;;
23617;SDS011;18207;32.078;34.818;2023-04-16T08:39:48;3.22;;;3.03;;
23617;SDS011;18207;32.078;34.818;2023-04-16T08:42:20;3.50;;;3.15;;
23617;SDS011;18207;32.078;34.818;2023-04-16T08:45:01;3.50;;;3.30;;
23617;SDS011;18207;32.078;34.818;2023-04-16T08:47:42;3.00;;;2.80;;
23617;SDS011;18207;32.078;34.818;2023-04-16T08:50:15;2.90;;;2.70;;
23617;SDS011;18207;32.078;34.818;2023-04-16T08:52:51;2.65;;;2.45;;
23617;SDS011;18207;32.078;34.818;2023-04-16T08:55:31;2.78;;;2.58;;
23617;SDS011;18207;32.078;34.818;2023-04-16T08:58:07;2.42;;;2.28;;
23617;SDS011;18207;32.078;34.818;2023-04-16T09:00:42;2.90;;;2.70;;
23617;SDS011;18207;32.078;34.818;2023-04-16T09:03:12;2.85;;;2.65;;
23617;SDS011;18207;32.078;34.818;2023-04-16T09:05:42;2.40;;;2.20;;
23617;SDS011;18207;32.078;34.818;2023-04-16T09:08:13;2.20;;;2.10;;
23617;SDS011;18207;32.078;34.818;2023-04-16T09:10:46;2.40;;;2.20;;
23617;SDS011;18207;32.078;34.818;2023-04-16T09:13:18;2.25;;;2.08;;
23617;SDS011;18207;32.078;34.818;2023-04-16T09:15:50;2.38;;;2.17;;
23617;SDS011;18207;32.078;34.818;2023-04-16T09:18:22;3.28;;;2.15;;
23617;SDS011;18207;32.078;34.818;2023-04-16T09:20:53;2.65;;;2.40;;
23617;SDS011;18207;32.078;34.818;2023-04-16T09:23:24;2.47;;;2.28;;
23617;SDS011;18207;32.078;34.818;2023-04-16T09:25:57;2.50;;;2.25;;
23617;SDS011;18207;32.078;34.818;2023-04-16T09:28:40;2.33;;;2.22;;
23617;SDS011;18207;32.078;34.818;2023-04-16T09:31:14;2.40;;;2.20;;
23617;SDS011;18207;32.078;34.818;2023-04-16T09:33:59;2.13;;;1.92;;
23617;SDS011;18207;32.078;34.818;2023-04-16T09:36:31;2.45;;;2.25;;
23617;SDS011;18207;32.078;34.818;2023-04-16T09:39:03;2.03;;;1.92;;
23617;SDS011;18207;32.078;34.818;2023-04-16T09:41:38;2.30;;;2.10;;
23617;SDS011;18207;32.078;34.818;2023-04-16T09:44:09;2.45;;;2.25;;
23617;SDS011;18207;32.078;34.818;2023-04-16T09:46:39;2.25;;;2.05;;
23617;SDS011;18207;32.078;34.818;2023-04-16T09:49:12;2.50;;;2.30;;
23617;SDS011;18207;32.078;34.818;2023-04-16T09:51:44;2.17;;;2.08;;
23617;SDS011;18207;32.078;34.818;2023-04-16T09:54:20;2.45;;;2.28;;
23617;SDS011;18207;32.078;34.818;2023-04-16T09:56:54;2.40;;;2.20;;
23617;SDS011;18207;32.078;34.818;2023-04-16T09:59:26;2.30;;;2.10;;
23617;SDS011;18207;32.078;34.818;2023-04-16T10:01:59;2.25;;;2.10;;
23617;SDS011;18207;32.078;34.818;2023-04-16T10:04:44;2.30;;;2.10;;
23617;SDS011;18207;32.078;34.818;2023-04-16T10:07:16;2.50;;;2.30;;
23617;SDS011;18207;32.078;34.818;2023-04-16T10:09:47;2.65;;;2.10;;
23617;SDS011;18207;32.078;34.818;2023-04-16T10:12:24;2.72;;;2.47;;
23617;SDS011;18207;32.078;34.818;2023-04-16T10:14:55;2.30;;;2.20;;
23617;SDS011;18207;32.078;34.818;2023-04-16T10:17:25;2.30;;;2.10;;
23617;SDS011;18207;32.078;34.818;2023-04-16T10:19:56;2.25;;;2.05;;
23617;SDS011;18207;32.078;34.818;2023-04-16T10:22:28;2.67;;;2.47;;
23617;SDS011;18207;32.078;34.818;2023-04-16T10:24:59;2.47;;;2.20;;
23617;SDS011;18207;32.078;34.818;2023-04-16T10:27:31;2.20;;;2.08;;
23617;SDS011;18207;32.078;34.818;2023-04-16T10:30:02;2.40;;;2.20;;
23617;SDS011;18207;32.078;34.818;2023-04-16T10:32:34;2.10;;;2.00;;
23617;SDS011;18207;32.078;34.818;2023-04-16T10:35:06;2.33;;;2.22;;
23617;SDS011;18207;32.078;34.818;2023-04-16T10:37:37;2.78;;;2.10;;
23617;SDS011;18207;32.078;34.818;2023-04-16T10:40:23;2.25;;;2.05;;
23617;SDS011;18207;32.078;34.818;2023-04-16T10:42:57;2.25;;;2.10;;
23617;SDS011;18207;32.078;34.818;2023-04-16T10:45:31;2.15;;;2.05;;
23617;SDS011;18207;32.078;34.818;2023-04-16T10:48:06;2.70;;;2.50;;
23617;SDS011;18207;32.078;34.818;2023-04-16T10:50:37;2.45;;;2.20;;
23617;SDS011;18207;32.078;34.818;2023-04-16T10:53:17;2.30;;;2.15;;
23617;SDS011;18207;32.078;34.818;2023-04-16T10:55:55;2.10;;;1.90;;
23617;SDS011;18207;32.078;34.818;2023-04-16T10:58:39;2.17;;;2.05;;
23617;SDS011;18207;32.078;34.818;2023-04-16T11:01:10;2.00;;;1.90;;
23617;SDS011;18207;32.078;34.818;2023-04-16T11:03:43;2.17;;;2.08;;
23617;SDS011;18207;32.078;34.818;2023-04-16T11:06:15;2.10;;;2.00;;
23617;SDS011;18207;32.078;34.818;2023-04-16T11:08:52;2.33;;;2.08;;
23617;SDS011;18207;32.078;34.818;2023-04-16T11:11:23;2.40;;;2.20;;
23617;SDS011;18207;32.078;34.818;2023-04-16T11:13:58;2.40;;;2.20;;
23617;SDS011;18207;32.078;34.818;2023-04-16T11:16:28;2.08;;;1.98;;
23617;SDS011;18207;32.078;34.818;2023-04-16T11:19:00;2.58;;;2.28;;
23617;SDS011;18207;32.078;34.818;2023-04-16T11:21:31;2.30;;;2.10;;
23617;SDS011;18207;32.078;34.818;2023-04-16T11:24:02;3.30;;;2.50;;
23617;SDS011;18207;32.078;34.818;2023-04-16T11:26:33;2.25;;;2.10;;
23617;SDS011;18207;32.078;34.818;2023-04-16T11:29:10;2.10;;;2.00;;
23617;SDS011;18207;32.078;34.818;2023-04-16T11:31:48;2.53;;;2.28;;
23617;SDS011;18207;32.078;34.818;2023-04-16T11:34:19;2.42;;;2.20;;
23617;SDS011;18207;32.078;34.818;2023-04-16T11:36:50;2.00;;;1.90;;
23617;SDS011;18207;32.078;34.818;2023-04-16T11:39:21;2.20;;;2.10;;
23617;SDS011;18207;32.078;34.818;2023-04-16T11:41:51;2.20;;;2.05;;
23617;SDS011;18207;32.078;34.818;2023-04-16T11:44:24;2.20;;;2.00;;
23617;SDS011;18207;32.078;34.818;2023-04-16T11:46:55;2.17;;;2.08;;
23617;SDS011;18207;32.078;34.818;2023-04-16T11:49:26;2.40;;;2.20;;
23617;SDS011;18207;32.078;34.818;2023-04-16T11:51:56;2.05;;;1.95;;
23617;SDS011;18207;32.078;34.818;2023-04-16T11:54:28;2.20;;;2.00;;
23617;SDS011;18207;32.078;34.818;2023-04-16T11:57:00;2.10;;;1.95;;
23617;SDS011;18207;32.078;34.818;2023-04-16T11:59:33;2.30;;;2.10;;
23617;SDS011;18207;32.078;34.818;2023-04-16T12:02:34;1.80;;;1.70;;
23617;SDS011;18207;32.078;34.818;2023-04-16T12:05:07;1.85;;;1.75;;
23617;SDS011;18207;32.078;34.818;2023-04-16T12:07:56;2.05;;;1.95;;
23617;SDS011;18207;32.078;34.818;2023-04-16T12:10:28;2.10;;;1.88;;
23617;SDS011;18207;32.078;34.818;2023-04-16T12:13:10;2.10;;;1.90;;
23617;SDS011;18207;32.078;34.818;2023-04-16T12:15:46;1.98;;;1.88;;
23617;SDS011;18207;32.078;34.818;2023-04-16T12:18:19;2.10;;;1.85;;
23617;SDS011;18207;32.078;34.818;2023-04-16T12:20:52;1.90;;;1.80;;
23617;SDS011;18207;32.078;34.818;2023-04-16T12:23:23;2.05;;;1.95;;
23617;SDS011;18207;32.078;34.818;2023-04-16T12:25:55;1.95;;;1.85;;
23617;SDS011;18207;32.078;34.818;2023-04-16T12:28:28;2.47;;;1.90;;
23617;SDS011;18207;32.078;34.818;2023-04-16T12:31:03;2.08;;;1.88;;
23617;SDS011;18207;32.078;34.818;2023-04-16T12:33:34;1.77;;;1.67;;
23617;SDS011;18207;32.078;34.818;2023-04-16T12:36:15;2.00;;;1.90;;
23617;SDS011;18207;32.078;34.818;2023-04-16T12:38:46;2.00;;;1.90;;
23617;SDS011;18207;32.078;34.818;2023-04-16T12:41:17;2.00;;;1.90;;
23617;SDS011;18207;32.078;34.818;2023-04-16T12:43:54;2.25;;;2.15;;
23617;SDS011;18207;32.078;34.818;2023-04-16T12:46:34;1.95;;;1.85;;
23617;SDS011;18207;32.078;34.818;2023-04-16T12:49:05;2.00;;;1.90;;
23617;SDS011;18207;32.078;34.818;2023-04-16T12:51:37;2.05;;;1.95;;
23617;SDS011;18207;32.078;34.818;2023-04-16T12:54:07;2.25;;;2.10;;
23617;SDS011;18207;32.078;34.818;2023-04-16T12:56:37;1.90;;;1.80;;
23617;SDS011;18207;32.078;34.818;2023-04-16T12:59:07;2.22;;;2.13;;
23617;SDS011;18207;32.078;34.818;2023-04-16T13:01:39;1.98;;;1.88;;
23617;SDS011;18207;32.078;34.818;2023-04-16T13:04:09;2.00;;;1.90;;
23617;SDS011;18207;32.078;34.818;2023-04-16T13:06:39;2.00;;;1.90;;
23617;SDS011;18207;32.078;34.818;2023-04-16T13:09:09;1.85;;;1.75;;
23617;SDS011;18207;32.078;34.818;2023-04-16T13:11:39;1.80;;;1.70;;
23617;SDS011;18207;32.078;34.818;2023-04-16T13:14:09;1.80;;;1.70;;
23617;SDS011;18207;32.078;34.818;2023-04-16T13:16:41;1.85;;;1.75;;
23617;SDS011;18207;32.078;34.818;2023-04-16T13:19:11;1.85;;;1.75;;
23617;SDS011;18207;32.078;34.818;2023-04-16T13:21:44;2.10;;;1.98;;
23617;SDS011;18207;32.078;34.818;2023-04-16T13:24:15;2.05;;;1.77;;
23617;SDS011;18207;32.078;34.818;2023-04-16T13:26:45;2.10;;;1.90;;
23617;SDS011;18207;32.078;34.818;2023-04-16T13:29:14;2.15;;;1.95;;
23617;SDS011;18207;32.078;34.818;2023-04-16T13:31:48;1.67;;;1.58;;
23617;SDS011;18207;32.078;34.818;2023-04-16T13:34:19;1.95;;;1.85;;
23617;SDS011;18207;32.078;34.818;2023-04-16T13:36:49;1.98;;;1.88;;
23617;SDS011;18207;32.078;34.818;2023-04-16T13:39:19;2.10;;;2.00;;
23617;SDS011;18207;32.078;34.818;2023-04-16T13:41:49;2.17;;;2.08;;
23617;SDS011;18207;32.078;34.818;2023-04-16T13:44:19;2.60;;;2.00;;
23617;SDS011;18207;32.078;34.818;2023-04-16T13:46:50;2.45;;;2.10;;
23617;SDS011;18207;32.078;34.818;2023-04-16T13:49:22;2.13;;;1.92;;
23617;SDS011;18207;32.078;34.818;2023-04-16T13:51:51;1.85;;;1.75;;
23617;SDS011;18207;32.078;34.818;2023-04-16T13:54:21;2.28;;;2.17;;
23617;SDS011;18207;32.078;34.818;2023-04-16T13:56:51;2.03;;;1.92;;
23617;SDS011;18207;32.078;34.818;2023-04-16T13:59:21;2.10;;;1.90;;
23617;SDS011;18207;32.078;34.818;2023-04-16T14:01:53;2.00;;;1.90;;
23617;SDS011;18207;32.078;34.818;2023-04-16T14:04:23;2.13;;;2.03;;
23617;SDS011;18207;32.078;34.818;2023-04-16T14:06:53;2.17;;;1.98;;
23617;SDS011;18207;32.078;34.818;2023-04-16T14:09:27;1.95;;;1.85;;
23617;SDS011;18207;32.078;34.818;2023-04-16T14:11:57;2.20;;;2.10;;
23617;SDS011;18207;32.078;34.818;2023-04-16T14:14:27;2.10;;;2.00;;
23617;SDS011;18207;32.078;34.818;2023-04-16T14:16:59;1.95;;;1.83;;
23617;SDS011;18207;32.078;34.818;2023-04-16T14:19:30;2.03;;;1.92;;
23617;SDS011;18207;32.078;34.818;2023-04-16T14:22:00;2.05;;;1.95;;
23617;SDS011;18207;32.078;34.818;2023-04-16T14:24:30;2.20;;;2.00;;
23617;SDS011;18207;32.078;34.818;2023-04-16T14:26:59;2.20;;;2.10;;
23617;SDS011;18207;32.078;34.818;2023-04-16T14:29:29;2.10;;;2.00;;
23617;SDS011;18207;32.078;34.818;2023-04-16T14:32:01;2.90;;;2.08;;
23617;SDS011;18207;32.078;34.818;2023-04-16T14:34:32;2.03;;;1.92;;
23617;SDS011;18207;32.078;34.818;2023-04-16T14:37:02;2.25;;;2.15;;
23617;SDS011;18207;32.078;34.818;2023-04-16T14:39:34;2.05;;;1.95;;
23617;SDS011;18207;32.078;34.818;2023-04-16T14:42:05;4.40;;;2.03;;
23617;SDS011;18207;32.078;34.818;2023-04-16T14:44:35;2.28;;;2.08;;
23617;SDS011;18207;32.078;34.818;2023-04-16T14:47:07;2.45;;;2.10;;
23617;SDS011;18207;32.078;34.818;2023-04-16T14:49:38;2.33;;;2.10;;
23617;SDS011;18207;32.078;34.818;2023-04-16T14:52:08;2.10;;;1.92;;
23617;SDS011;18207;32.078;34.818;2023-04-16T14:54:38;2.00;;;1.90;;
23617;SDS011;18207;32.078;34.818;2023-04-16T14:57:09;2.13;;;1.95;;
23617;SDS011;18207;32.078;34.818;2023-04-16T14:59:38;2.42;;;2.10;;